createdAt,value
2023-01-04T00:00:21.106Z,7.34
2023-01-04T00:01:22.243Z,7.37
2023-01-04T00:02:21.826Z,7.37
2023-01-04T00:03:21.061Z,7.36
2023-01-04T00:04:21.335Z,7.39
2023-01-04T00:05:21.385Z,7.39
2023-01-04T00:06:20.619Z,7.39
2023-01-04T00:07:20.915Z,7.44
2023-01-04T00:08:21.370Z,7.45
2023-01-04T00:09:21.494Z,7.51
2023-01-04T00:10:20.709Z,7.50
2023-01-04T00:11:20.985Z,7.51
2023-01-04T00:12:21.255Z,7.51
2023-01-04T00:13:20.483Z,7.54
2023-01-04T00:14:20.734Z,7.54
2023-01-04T00:15:21.045Z,7.58
2023-01-04T00:16:21.399Z,7.60
2023-01-04T00:17:20.575Z,7.58
2023-01-04T00:18:20.793Z,7.58
2023-01-04T00:19:21.044Z,7.58
2023-01-04T00:20:21.401Z,7.57
2023-01-04T00:21:20.580Z,7.58
2023-01-04T00:22:20.842Z,7.57
2023-01-04T00:23:21.145Z,7.57
2023-01-04T00:24:20.364Z,7.58
2023-01-04T00:25:20.634Z,7.58
2023-01-04T00:26:21.314Z,7.60
2023-01-04T00:27:21.164Z,7.62
2023-01-04T00:28:20.419Z,7.63
2023-01-04T00:29:20.654Z,7.62
2023-01-04T00:30:20.916Z,7.63
2023-01-04T00:31:21.390Z,7.67
2023-01-04T00:32:20.560Z,7.70
2023-01-04T00:33:20.695Z,7.73
2023-01-04T00:34:21.006Z,7.71
2023-01-04T00:35:43.966Z,7.73
2023-01-04T00:36:21.414Z,7.74
2023-01-04T00:37:20.710Z,7.76
2023-01-04T00:38:20.952Z,7.77
2023-01-04T00:39:20.163Z,7.77
2023-01-04T00:40:20.419Z,7.79
2023-01-04T00:41:49.116Z,7.82
2023-01-04T00:42:21.956Z,7.82
2023-01-04T00:43:20.140Z,7.88
2023-01-04T00:44:20.404Z,7.89
2023-01-04T00:45:20.680Z,7.89
2023-01-04T00:46:20.984Z,7.91
2023-01-04T00:47:20.114Z,7.92
2023-01-04T00:48:21.630Z,7.92
2023-01-04T00:49:20.662Z,7.89
2023-01-04T00:50:20.922Z,7.92
2023-01-04T00:51:20.132Z,7.94
2023-01-04T00:52:20.370Z,7.94
2023-01-04T00:53:20.617Z,7.95
2023-01-04T00:54:20.932Z,7.95
2023-01-04T00:55:20.107Z,7.99
2023-01-04T00:56:22.328Z,7.96
2023-01-04T00:57:20.604Z,7.96
2023-01-04T00:58:20.868Z,7.94
2023-01-04T00:59:20.098Z,7.99
2023-01-04T01:00:20.396Z,8.00
2023-01-04T01:01:20.742Z,8.02
2023-01-04T01:02:20.996Z,8.04
2023-01-04T01:03:20.127Z,8.06
2023-01-04T01:04:19.996Z,8.04
2023-01-04T01:05:20.175Z,8.06
2023-01-04T01:06:20.555Z,8.03
2023-01-04T01:07:21.660Z,8.03
2023-01-04T01:08:20.907Z,8.03
2023-01-04T01:09:20.205Z,8.06
2023-01-04T01:10:20.464Z,8.06
2023-01-04T01:11:20.750Z,8.07
2023-01-04T01:12:19.969Z,8.07
2023-01-04T01:13:20.255Z,8.07
2023-01-04T01:14:20.559Z,8.09
2023-01-04T01:15:19.796Z,8.09
2023-01-04T01:16:37.980Z,8.04
2023-01-04T01:17:21.415Z,8.04
2023-01-04T01:18:20.656Z,8.07
2023-01-04T01:19:19.915Z,8.06
2023-01-04T01:20:20.230Z,8.04
2023-01-04T01:21:21.424Z,8.03
2023-01-04T01:22:19.719Z,8.02
2023-01-04T01:23:20.025Z,8.04
2023-01-04T01:24:20.278Z,8.03
2023-01-04T01:25:19.541Z,8.03
2023-01-04T01:26:19.855Z,8.03
2023-01-04T01:27:20.171Z,8.03
2023-01-04T01:28:20.625Z,8.03
2023-01-04T01:29:20.621Z,8.04
2023-01-04T01:30:19.955Z,8.03
2023-01-04T01:31:20.316Z,8.06
2023-01-04T01:32:19.465Z,8.06
2023-01-04T01:33:19.763Z,8.07
2023-01-04T01:34:20.078Z,8.07
2023-01-04T01:35:20.341Z,8.06
2023-01-04T01:36:19.600Z,8.06
2023-01-04T01:37:19.922Z,8.06
2023-01-04T01:38:20.203Z,8.03
2023-01-04T01:39:19.451Z,8.02
2023-01-04T01:40:19.835Z,8.03
2023-01-04T01:41:20.998Z,8.00
2023-01-04T01:42:20.350Z,7.99
2023-01-04T01:43:19.569Z,8.00
2023-01-04T01:44:19.895Z,7.99
2023-01-04T01:45:20.201Z,7.96
2023-01-04T01:46:19.554Z,7.96
2023-01-04T01:47:19.761Z,7.96
2023-01-04T01:48:20.002Z,7.96
2023-01-04T01:49:19.254Z,7.95
2023-01-04T01:50:20.524Z,7.95
2023-01-04T01:51:19.855Z,7.92
2023-01-04T01:52:20.166Z,7.91
2023-01-04T01:53:19.406Z,7.88
2023-01-04T01:54:19.676Z,7.85
2023-01-04T01:55:19.965Z,7.85
2023-01-04T01:56:19.195Z,7.81
2023-01-04T01:57:19.626Z,7.79
2023-01-04T01:58:19.780Z,7.79
2023-01-04T01:59:20.054Z,7.77
2023-01-04T02:00:19.310Z,7.77
2023-01-04T02:01:19.810Z,7.74
2023-01-04T02:02:20.068Z,7.71
2023-01-04T02:03:19.304Z,7.73
2023-01-04T02:04:20.364Z,7.71
2023-01-04T02:05:19.702Z,7.71
2023-01-04T02:06:19.969Z,7.70
2023-01-04T02:07:19.260Z,7.71
2023-01-04T02:08:19.611Z,7.70
2023-01-04T02:09:19.790Z,7.67
2023-01-04T02:10:20.070Z,7.70
2023-01-04T02:11:19.332Z,7.69
2023-01-04T02:12:19.627Z,7.69
2023-01-04T02:13:19.944Z,7.69
2023-01-04T02:14:19.190Z,7.69
2023-01-04T02:15:19.475Z,7.66
2023-01-04T02:16:19.901Z,7.67
2023-01-04T02:17:19.080Z,7.67
2023-01-04T02:18:18.960Z,7.67
2023-01-04T02:19:19.382Z,7.66
2023-01-04T02:20:19.583Z,7.66
2023-01-04T02:21:19.816Z,7.63
2023-01-04T02:22:19.055Z,7.62
2023-01-04T02:23:19.363Z,7.66
2023-01-04T02:24:19.671Z,7.66
2023-01-04T02:25:18.868Z,7.62
2023-01-04T02:26:19.147Z,7.67
2023-01-04T02:27:19.385Z,7.67
2023-01-04T02:28:19.795Z,7.67
2023-01-04T02:29:18.940Z,7.70
2023-01-04T02:30:19.483Z,7.70
2023-01-04T02:31:19.689Z,7.71
2023-01-04T02:32:18.775Z,7.70
2023-01-04T02:33:20.029Z,7.73
2023-01-04T02:34:19.473Z,7.71
2023-01-04T02:35:18.668Z,7.69
2023-01-04T02:36:18.956Z,7.70
2023-01-04T02:37:19.238Z,7.69
2023-01-04T02:38:19.526Z,7.69
2023-01-04T02:39:18.822Z,7.69
2023-01-04T02:40:19.068Z,7.70
2023-01-04T02:41:19.375Z,7.71
2023-01-04T02:42:18.585Z,7.76
2023-01-04T02:43:19.925Z,7.77
2023-01-04T02:44:20.156Z,7.76
2023-01-04T02:45:18.516Z,7.71
2023-01-04T02:46:18.905Z,7.70
2023-01-04T02:47:19.194Z,7.70
2023-01-04T02:48:19.411Z,7.73
2023-01-04T02:49:18.665Z,7.71
2023-01-04T02:50:18.987Z,7.73
2023-01-04T02:51:19.295Z,7.74
2023-01-04T02:52:18.631Z,7.74
2023-01-04T02:53:18.855Z,7.74
2023-01-04T02:54:19.130Z,7.74
2023-01-04T02:55:18.352Z,7.74
2023-01-04T02:56:18.770Z,7.77
2023-01-04T02:57:19.017Z,7.82
2023-01-04T02:58:19.211Z,7.84
2023-01-04T02:59:18.421Z,7.81
2023-01-04T03:00:18.711Z,7.84
2023-01-04T03:01:19.275Z,7.84
2023-01-04T03:02:19.443Z,7.86
2023-01-04T03:03:19.613Z,7.86
2023-01-04T03:04:19.721Z,7.86
2023-01-04T03:05:19.998Z,7.88
2023-01-04T03:06:18.282Z,7.89
2023-01-04T03:07:18.560Z,7.89
2023-01-04T03:08:18.821Z,7.88
2023-01-04T03:09:19.141Z,7.89
2023-01-04T03:10:18.381Z,7.94
2023-01-04T03:11:18.671Z,7.94
2023-01-04T03:12:18.996Z,8.00
2023-01-04T03:13:18.226Z,8.03
2023-01-04T03:14:31.582Z,8.03
2023-01-04T03:15:19.756Z,8.06
2023-01-04T03:16:19.090Z,8.04
2023-01-04T03:17:18.320Z,8.07
2023-01-04T03:18:18.647Z,8.04
2023-01-04T03:19:19.861Z,8.03
2023-01-04T03:20:18.150Z,8.03
2023-01-04T03:21:19.421Z,8.07
2023-01-04T03:22:18.892Z,8.10
2023-01-04T03:23:17.995Z,8.12
2023-01-04T03:24:18.261Z,8.12
2023-01-04T03:25:19.338Z,8.14
2023-01-04T03:26:18.771Z,8.17
2023-01-04T03:27:18.984Z,8.20
2023-01-04T03:28:18.200Z,8.22
2023-01-04T03:29:18.591Z,8.18
2023-01-04T03:30:18.814Z,8.22
2023-01-04T03:31:18.040Z,8.21
2023-01-04T03:32:18.305Z,8.21
2023-01-04T03:33:18.568Z,8.21
2023-01-04T03:34:18.866Z,8.20
2023-01-04T03:35:18.107Z,8.21
2023-01-04T03:36:18.381Z,8.24
2023-01-04T03:37:18.742Z,8.27
2023-01-04T03:38:17.925Z,8.25
2023-01-04T03:39:19.462Z,8.27
2023-01-04T03:40:18.560Z,8.27
2023-01-04T03:41:17.776Z,8.29
2023-01-04T03:42:18.151Z,8.29
2023-01-04T03:43:19.351Z,8.37
2023-01-04T03:44:18.583Z,8.28
2023-01-04T03:45:17.830Z,8.31
2023-01-04T03:46:18.362Z,8.32
2023-01-04T03:47:18.427Z,8.36
2023-01-04T03:48:18.681Z,8.36
2023-01-04T03:49:17.925Z,8.37
2023-01-04T03:50:18.185Z,8.43
2023-01-04T03:51:18.473Z,8.43
2023-01-04T03:52:17.704Z,8.40
2023-01-04T03:53:18.939Z,8.40
2023-01-04T03:54:18.280Z,8.42
2023-01-04T03:55:18.652Z,8.40
2023-01-04T03:56:18.803Z,8.43
2023-01-04T03:57:18.096Z,8.43
2023-01-04T03:58:18.391Z,8.45
2023-01-04T03:59:17.712Z,8.45
2023-01-04T04:00:17.936Z,8.50
2023-01-04T04:01:18.416Z,8.52
2023-01-04T04:02:18.576Z,8.47
2023-01-04T04:03:17.752Z,8.52
2023-01-04T04:04:18.353Z,8.55
2023-01-04T04:05:19.299Z,8.57
2023-01-04T04:06:18.528Z,8.57
2023-01-04T04:07:17.908Z,8.57
2023-01-04T04:08:18.118Z,8.55
2023-01-04T04:09:18.429Z,8.57
2023-01-04T04:10:17.615Z,8.55
2023-01-04T04:11:17.900Z,8.54
2023-01-04T04:12:18.187Z,8.57
2023-01-04T04:13:17.433Z,8.60
2023-01-04T04:14:17.825Z,8.63
2023-01-04T04:15:17.968Z,8.64
2023-01-04T04:16:18.282Z,8.65
2023-01-04T04:17:17.461Z,8.63
2023-01-04T04:18:17.791Z,8.71
2023-01-04T04:19:18.012Z,8.80
2023-01-04T04:20:19.264Z,8.82
2023-01-04T04:21:17.511Z,8.85
2023-01-04T04:22:17.792Z,8.86
2023-01-04T04:23:18.058Z,8.86
2023-01-04T04:24:17.286Z,8.89
2023-01-04T04:25:17.566Z,8.88
2023-01-04T04:26:17.824Z,8.85
2023-01-04T04:27:18.102Z,8.88
2023-01-04T04:28:17.317Z,8.89
2023-01-04T04:29:17.631Z,8.91
2023-01-04T04:30:17.861Z,8.86
2023-01-04T04:31:17.124Z,8.89
2023-01-04T04:32:17.407Z,8.94
2023-01-04T04:33:18.575Z,8.97
2023-01-04T04:34:17.907Z,8.98
2023-01-04T04:35:17.167Z,8.96
2023-01-04T04:36:17.412Z,8.93
2023-01-04T04:37:17.714Z,8.91
2023-01-04T04:38:17.991Z,8.86
2023-01-04T04:39:17.246Z,8.80
2023-01-04T04:40:17.611Z,8.73
2023-01-04T04:41:17.809Z,8.64
2023-01-04T04:42:19.042Z,8.64
2023-01-04T04:43:17.375Z,8.61
2023-01-04T04:44:18.635Z,8.46
2023-01-04T04:45:16.945Z,8.46
2023-01-04T04:46:17.344Z,8.45
2023-01-04T04:47:18.500Z,8.45
2023-01-04T04:48:18.789Z,8.47
2023-01-04T04:49:17.085Z,8.47
2023-01-04T04:50:17.385Z,8.47
2023-01-04T04:51:17.756Z,8.45
2023-01-04T04:52:16.931Z,8.49
2023-01-04T04:53:17.232Z,8.49
2023-01-04T04:54:17.515Z,8.52
2023-01-04T04:55:17.771Z,8.52
2023-01-04T04:56:16.974Z,8.54
2023-01-04T04:57:17.401Z,8.55
2023-01-04T04:58:17.558Z,8.54
2023-01-04T04:59:16.792Z,8.54
2023-01-04T05:00:17.083Z,8.57
2023-01-04T05:01:18.423Z,8.61
2023-01-04T05:02:17.883Z,8.61
2023-01-04T05:03:17.945Z,8.68
2023-01-04T05:04:17.332Z,8.61
2023-01-04T05:05:17.457Z,8.64
2023-01-04T05:06:16.728Z,8.65
2023-01-04T05:07:17.951Z,8.63
2023-01-04T05:08:17.341Z,8.63
2023-01-04T05:09:17.562Z,8.64
2023-01-04T05:10:16.782Z,8.67
2023-01-04T05:11:17.082Z,8.68
2023-01-04T05:12:17.346Z,8.70
2023-01-04T05:13:16.592Z,8.71
2023-01-04T05:14:16.907Z,8.73
2023-01-04T05:15:18.175Z,8.82
2023-01-04T05:16:17.526Z,8.75
2023-01-04T05:17:17.677Z,8.76
2023-01-04T05:18:17.011Z,8.76
2023-01-04T05:19:18.267Z,8.79
2023-01-04T05:20:16.587Z,8.83
2023-01-04T05:21:20.135Z,8.83
2023-01-04T05:22:17.227Z,8.83
2023-01-04T05:23:16.442Z,8.83
2023-01-04T05:24:16.695Z,8.85
2023-01-04T05:25:17.484Z,8.82
2023-01-04T05:26:17.344Z,8.83
2023-01-04T05:27:16.555Z,8.86
2023-01-04T05:28:16.822Z,8.89
2023-01-04T05:29:17.192Z,8.93
2023-01-04T05:30:17.337Z,8.93
2023-01-04T05:31:16.727Z,8.96
2023-01-04T05:32:17.990Z,8.94
2023-01-04T05:33:18.222Z,8.94
2023-01-04T05:34:22.037Z,8.94
2023-01-04T05:35:17.846Z,8.94
2023-01-04T05:36:17.121Z,8.96
2023-01-04T05:37:16.458Z,8.97
2023-01-04T05:38:16.619Z,8.94
2023-01-04T05:39:16.909Z,8.97
2023-01-04T05:40:17.184Z,8.97
2023-01-04T05:41:16.407Z,8.96
2023-01-04T05:42:17.117Z,9.00
2023-01-04T05:43:16.957Z,8.98
2023-01-04T05:44:16.206Z,9.06
2023-01-04T05:45:17.435Z,9.04
2023-01-04T05:46:16.799Z,9.03
2023-01-04T05:47:17.950Z,9.04
2023-01-04T05:48:16.299Z,9.04
2023-01-04T05:49:16.522Z,9.06
2023-01-04T05:50:17.747Z,9.03
2023-01-04T05:51:17.091Z,9.04
2023-01-04T05:52:16.354Z,9.04
2023-01-04T05:53:16.666Z,9.06
2023-01-04T05:54:21.289Z,9.06
2023-01-04T05:55:17.120Z,9.03
2023-01-04T05:56:16.440Z,8.98
2023-01-04T05:57:16.722Z,9.01
2023-01-04T05:58:15.992Z,9.04
2023-01-04T05:59:16.451Z,9.04
2023-01-04T06:00:16.513Z,9.04
2023-01-04T06:01:16.870Z,9.10
2023-01-04T06:02:17.241Z,9.06
2023-01-04T06:03:16.522Z,9.06
2023-01-04T06:04:16.771Z,9.16
2023-01-04T06:05:16.811Z,9.01
2023-01-04T06:06:16.116Z,9.03
2023-01-04T06:07:17.384Z,9.00
2023-01-04T06:08:16.709Z,9.06
2023-01-04T06:09:15.971Z,9.12
2023-01-04T06:10:16.320Z,9.15
2023-01-04T06:11:16.529Z,9.15
2023-01-04T06:12:16.757Z,9.13
2023-01-04T06:13:16.046Z,9.16
2023-01-04T06:14:17.274Z,9.20
2023-01-04T06:15:16.716Z,9.19
2023-01-04T06:16:16.886Z,9.22
2023-01-04T06:17:16.165Z,9.22
2023-01-04T06:18:16.386Z,9.20
2023-01-04T06:19:16.676Z,9.23
2023-01-04T06:20:15.902Z,9.26
2023-01-04T06:21:16.242Z,9.24
2023-01-04T06:22:16.436Z,9.30
2023-01-04T06:23:15.682Z,9.30
2023-01-04T06:24:15.967Z,9.26
2023-01-04T06:25:17.187Z,9.24
2023-01-04T06:26:16.556Z,9.20
2023-01-04T06:27:16.083Z,9.23
2023-01-04T06:28:16.031Z,9.23
2023-01-04T06:29:16.321Z,9.24
2023-01-04T06:30:16.510Z,9.27
2023-01-04T06:31:15.997Z,9.26
2023-01-04T06:32:16.173Z,9.23
2023-01-04T06:33:16.403Z,9.27
2023-01-04T06:34:15.611Z,9.31
2023-01-04T06:35:15.867Z,9.32
2023-01-04T06:36:19.468Z,9.30
2023-01-04T06:37:16.535Z,9.31
2023-01-04T06:38:15.580Z,9.30
2023-01-04T06:39:15.845Z,9.32
2023-01-04T06:40:16.341Z,9.37
2023-01-04T06:41:16.362Z,9.40
2023-01-04T06:42:15.627Z,9.41
2023-01-04T06:43:16.007Z,9.44
2023-01-04T06:44:16.182Z,9.45
2023-01-04T06:45:16.331Z,9.44
2023-01-04T06:46:16.591Z,9.42
2023-01-04T06:47:15.833Z,9.42
2023-01-04T06:48:18.239Z,9.45
2023-01-04T06:49:15.306Z,9.45
2023-01-04T06:50:15.590Z,9.42
2023-01-04T06:51:15.836Z,9.40
2023-01-04T06:52:16.096Z,9.45
2023-01-04T06:53:15.280Z,9.50
2023-01-04T06:54:15.566Z,9.52
2023-01-04T06:55:15.857Z,9.52
2023-01-04T06:56:16.007Z,9.53
2023-01-04T06:57:15.251Z,9.50
2023-01-04T06:58:15.520Z,9.49
2023-01-04T06:59:15.730Z,9.45
2023-01-04T07:00:15.996Z,9.48
2023-01-04T07:01:15.437Z,9.45
2023-01-04T07:02:15.743Z,9.45
2023-01-04T07:03:16.362Z,9.48
2023-01-04T07:04:16.032Z,9.48
2023-01-04T07:05:15.238Z,9.48
2023-01-04T07:06:15.615Z,9.44
2023-01-04T07:07:15.817Z,9.45
2023-01-04T07:08:17.017Z,9.44
2023-01-04T07:09:16.271Z,9.48
2023-01-04T07:10:15.635Z,9.49
2023-01-04T07:11:16.756Z,9.49
2023-01-04T07:12:15.026Z,9.52
2023-01-04T07:13:15.374Z,9.52
2023-01-04T07:14:15.617Z,9.49
2023-01-04T07:15:38.926Z,9.48
2023-01-04T07:16:16.150Z,9.45
2023-01-04T07:17:16.312Z,9.44
2023-01-04T07:18:15.663Z,9.45
2023-01-04T07:19:16.859Z,9.48
2023-01-04T07:20:16.076Z,9.49
2023-01-04T07:21:15.469Z,9.49
2023-01-04T07:22:15.640Z,9.49
2023-01-04T07:23:14.880Z,9.49
2023-01-04T07:24:16.070Z,9.48
2023-01-04T07:25:16.375Z,9.49
2023-01-04T07:26:15.688Z,9.50
2023-01-04T07:27:14.904Z,9.52
2023-01-04T07:28:15.201Z,9.52
2023-01-04T07:29:16.397Z,9.55
2023-01-04T07:30:15.716Z,9.58
2023-01-04T07:31:15.017Z,9.55
2023-01-04T07:32:15.361Z,9.53
2023-01-04T07:33:16.463Z,9.55
2023-01-04T07:34:14.776Z,9.53
2023-01-04T07:35:14.991Z,9.55
2023-01-04T07:36:15.287Z,9.52
2023-01-04T07:37:15.723Z,9.49
2023-01-04T07:38:14.741Z,9.48
2023-01-04T07:39:18.175Z,9.48
2023-01-04T07:40:15.331Z,9.49
2023-01-04T07:41:15.576Z,9.50
2023-01-04T07:42:14.817Z,9.53
2023-01-04T07:43:15.205Z,9.49
2023-01-04T07:44:15.423Z,9.59
2023-01-04T07:45:14.562Z,9.58
2023-01-04T07:46:14.935Z,9.56
2023-01-04T07:47:15.102Z,9.56
2023-01-04T07:48:15.671Z,9.55
2023-01-04T07:49:17.789Z,9.55
2023-01-04T07:50:14.831Z,9.55
2023-01-04T07:51:16.050Z,9.52
2023-01-04T07:52:15.368Z,9.52
2023-01-04T07:53:14.583Z,9.53
2023-01-04T07:54:14.864Z,9.56
2023-01-04T07:55:15.053Z,9.62
2023-01-04T07:56:18.919Z,9.63
2023-01-04T07:57:14.556Z,9.62
2023-01-04T07:58:14.781Z,9.63
2023-01-04T07:59:15.071Z,9.65
2023-01-04T08:00:15.368Z,9.65
2023-01-04T08:01:14.635Z,9.68
2023-01-04T08:02:14.935Z,9.68
2023-01-04T08:03:16.018Z,9.65
2023-01-04T08:04:15.272Z,9.65
2023-01-04T08:05:14.706Z,9.68
2023-01-04T08:06:14.871Z,9.68
2023-01-04T08:07:15.098Z,9.68
2023-01-04T08:08:15.269Z,9.70
2023-01-04T08:09:15.666Z,9.68
2023-01-04T08:10:14.891Z,9.71
2023-01-04T08:11:15.158Z,9.74
2023-01-04T08:12:14.504Z,9.75
2023-01-04T08:13:14.652Z,9.77
2023-01-04T08:14:14.892Z,9.83
2023-01-04T08:15:15.165Z,9.80
2023-01-04T08:16:14.607Z,9.85
2023-01-04T08:17:14.591Z,9.85
2023-01-04T08:18:14.836Z,9.80
2023-01-04T08:19:15.149Z,9.85
2023-01-04T08:20:14.312Z,9.85
2023-01-04T08:21:14.571Z,9.83
2023-01-04T08:22:14.851Z,9.85
2023-01-04T08:23:14.097Z,9.83
2023-01-04T08:24:14.365Z,9.85
2023-01-04T08:25:15.541Z,9.81
2023-01-04T08:26:15.791Z,9.85
2023-01-04T08:27:14.107Z,9.86
2023-01-04T08:28:14.291Z,9.88
2023-01-04T08:29:15.492Z,9.88
2023-01-04T08:30:14.770Z,9.86
2023-01-04T08:31:14.103Z,9.83
2023-01-04T08:32:14.237Z,9.86
2023-01-04T08:33:14.482Z,9.88
2023-01-04T08:34:14.765Z,9.85
2023-01-04T08:35:16.053Z,9.93
2023-01-04T08:36:14.252Z,9.86
2023-01-04T08:37:14.631Z,9.86
2023-01-04T08:38:56.165Z,9.88
2023-01-04T08:39:16.042Z,9.86
2023-01-04T08:40:14.281Z,9.86
2023-01-04T08:41:39.272Z,9.88
2023-01-04T08:42:24.728Z,9.89
2023-01-04T08:43:15.138Z,9.91
2023-01-04T08:44:14.316Z,9.89
2023-01-04T08:45:16.651Z,9.88
2023-01-04T08:46:13.803Z,9.88
2023-01-04T08:47:14.461Z,9.91
2023-01-04T08:48:18.252Z,9.89
2023-01-04T08:49:16.421Z,9.92
2023-01-04T08:50:13.706Z,9.95
2023-01-04T08:51:14.896Z,9.95
2023-01-04T08:52:14.210Z,9.93
2023-01-04T08:53:14.431Z,9.93
2023-01-04T08:54:14.001Z,9.95
2023-01-04T08:55:16.791Z,9.96
2023-01-04T08:56:15.097Z,9.96
2023-01-04T08:57:14.411Z,9.98
2023-01-04T08:58:13.691Z,10.01
2023-01-04T08:59:14.846Z,10.01
2023-01-04T09:00:14.345Z,10.01
2023-01-04T09:01:14.535Z,10.01
2023-01-04T09:02:14.713Z,10.02
2023-01-04T09:03:14.890Z,9.98
2023-01-04T09:04:15.135Z,10.04
2023-01-04T09:05:23.012Z,10.07
2023-01-04T09:06:14.681Z,10.09
2023-01-04T09:07:14.850Z,10.11
2023-01-04T09:08:15.110Z,10.13
2023-01-04T09:09:14.398Z,10.16
2023-01-04T09:10:13.605Z,10.17
2023-01-04T09:11:13.850Z,10.16
2023-01-04T09:12:14.075Z,10.17
2023-01-04T09:13:14.321Z,10.17
2023-01-04T09:14:13.504Z,10.18
2023-01-04T09:15:13.747Z,10.18
2023-01-04T09:16:14.306Z,10.18
2023-01-04T09:17:14.251Z,10.20
2023-01-04T09:18:31.980Z,10.20
2023-01-04T09:19:21.423Z,10.20
2023-01-04T09:20:15.801Z,10.25
2023-01-04T09:21:14.112Z,10.26
2023-01-04T09:22:13.448Z,10.26
2023-01-04T09:23:13.584Z,10.28
2023-01-04T09:24:13.826Z,10.32
2023-01-04T09:25:14.045Z,10.34
2023-01-04T09:26:14.316Z,10.31
2023-01-04T09:27:13.536Z,10.29
2023-01-04T09:28:13.796Z,10.31
2023-01-04T09:29:14.962Z,10.32
2023-01-04T09:30:14.166Z,10.34
2023-01-04T09:31:14.480Z,10.32
2023-01-04T09:32:16.821Z,10.34
2023-01-04T09:33:13.988Z,10.34
2023-01-04T09:34:16.653Z,10.35
2023-01-04T09:35:14.401Z,10.36
2023-01-04T09:36:13.698Z,10.39
2023-01-04T09:37:13.955Z,10.42
2023-01-04T09:38:13.126Z,10.43
2023-01-04T09:39:21.857Z,10.47
2023-01-04T09:40:14.668Z,10.47
2023-01-04T09:41:13.912Z,10.51
2023-01-04T09:42:13.174Z,10.52
2023-01-04T09:43:21.305Z,10.58
2023-01-04T09:44:14.663Z,10.62
2023-01-04T09:45:29.344Z,10.62
2023-01-04T09:46:14.098Z,10.66
2023-01-04T09:47:13.422Z,10.66
2023-01-04T09:48:15.593Z,10.68
2023-01-04T09:49:13.832Z,10.69
2023-01-04T09:50:13.109Z,10.68
2023-01-04T09:51:13.296Z,10.70
2023-01-04T09:52:13.539Z,10.73
2023-01-04T09:53:14.691Z,10.75
2023-01-04T09:54:12.963Z,10.76
2023-01-04T09:55:37.435Z,10.78
2023-01-04T09:56:14.458Z,10.78
2023-01-04T09:57:14.627Z,10.83
2023-01-04T09:58:13.851Z,10.84
2023-01-04T09:59:13.136Z,10.83
2023-01-04T10:00:13.427Z,10.83
2023-01-04T10:01:14.727Z,10.83
2023-01-04T10:02:14.056Z,10.83
2023-01-04T10:03:14.144Z,10.84
2023-01-04T10:04:14.307Z,10.86
2023-01-04T10:05:13.606Z,10.87
2023-01-04T10:06:12.850Z,10.87
2023-01-04T10:07:13.091Z,10.90
2023-01-04T10:08:13.304Z,10.88
2023-01-04T10:09:13.541Z,10.90
2023-01-04T10:10:13.633Z,10.93
2023-01-04T10:11:13.041Z,10.93
2023-01-04T10:12:14.113Z,10.91
2023-01-04T10:13:13.406Z,10.94
2023-01-04T10:14:12.871Z,10.93
2023-01-04T10:15:12.805Z,10.93
2023-01-04T10:16:13.069Z,10.91
2023-01-04T10:17:16.223Z,10.93
2023-01-04T10:19:37.070Z,10.91
2023-01-04T10:19:51.515Z,10.93
2023-01-04T10:21:18.752Z,10.91
2023-01-04T10:21:32.049Z,10.93
2023-01-04T10:22:14.480Z,10.91
2023-01-04T10:23:12.554Z,10.91
2023-01-04T10:24:13.737Z,10.93
2023-01-04T10:25:13.010Z,10.91
2023-01-04T10:26:13.230Z,10.91
2023-01-04T10:27:12.707Z,10.94
2023-01-04T10:28:12.655Z,10.94
2023-01-04T10:29:12.880Z,10.99
2023-01-04T10:30:13.120Z,11.01
2023-01-04T10:31:40.191Z,11.01
2023-01-04T10:32:13.590Z,11.02
2023-01-04T10:33:12.765Z,11.03
2023-01-04T10:34:18.558Z,11.03
2023-01-04T10:35:14.231Z,11.06
2023-01-04T10:36:12.437Z,11.08
2023-01-04T10:37:13.600Z,11.11
2023-01-04T10:38:13.915Z,11.11
2023-01-04T10:39:13.111Z,11.11
2023-01-04T10:40:13.299Z,11.11
2023-01-04T10:41:12.542Z,11.11
2023-01-04T10:42:12.759Z,11.12
2023-01-04T10:43:13.008Z,11.11
2023-01-04T10:44:14.107Z,11.13
2023-01-04T10:45:12.390Z,11.13
2023-01-04T10:46:12.635Z,11.13
2023-01-04T10:47:12.882Z,11.17
2023-01-04T10:48:14.040Z,11.20
2023-01-04T10:49:12.384Z,11.21
2023-01-04T10:50:13.439Z,11.23
2023-01-04T10:51:13.697Z,11.23
2023-01-04T10:52:12.995Z,11.24
2023-01-04T10:53:12.154Z,11.23
2023-01-04T10:54:12.627Z,11.24
2023-01-04T10:55:13.592Z,11.26
2023-01-04T10:56:25.111Z,11.24
2023-01-04T10:57:13.061Z,11.24
2023-01-04T10:58:12.302Z,11.23
2023-01-04T10:59:12.537Z,11.24
2023-01-04T11:00:13.096Z,11.23
2023-01-04T11:01:13.144Z,11.20
2023-01-04T11:02:13.217Z,11.21
2023-01-04T11:03:12.492Z,11.24
2023-01-04T11:04:17.826Z,11.23
2023-01-04T11:05:12.857Z,11.23
2023-01-04T11:06:12.135Z,11.21
2023-01-04T11:07:13.216Z,11.24
2023-01-04T11:08:13.487Z,11.23
2023-01-04T11:09:13.690Z,11.23
2023-01-04T11:10:11.991Z,11.27
2023-01-04T11:11:12.284Z,11.30
2023-01-04T11:12:12.494Z,11.27
2023-01-04T11:13:12.709Z,11.28
2023-01-04T11:14:12.919Z,11.28
2023-01-04T11:15:13.139Z,11.30
2023-01-04T11:16:12.511Z,11.31
2023-01-04T11:17:13.625Z,11.33
2023-01-04T11:18:12.785Z,11.35
2023-01-04T11:19:12.150Z,11.36
2023-01-04T11:20:12.357Z,11.36
2023-01-04T11:21:12.612Z,11.35
2023-01-04T11:22:12.745Z,11.33
2023-01-04T11:23:12.061Z,11.33
2023-01-04T11:24:31.622Z,11.36
2023-01-04T11:26:12.684Z,11.36
2023-01-04T11:27:11.996Z,11.36
2023-01-04T11:28:12.190Z,11.36
2023-01-04T11:29:12.520Z,11.39
2023-01-04T11:30:11.616Z,11.38
2023-01-04T11:31:11.946Z,11.39
2023-01-04T11:32:13.108Z,11.38
2023-01-04T11:33:12.344Z,11.38
2023-01-04T11:34:12.445Z,11.35
2023-01-04T11:35:12.768Z,11.31
2023-01-04T11:36:12.916Z,11.30
2023-01-04T11:37:13.120Z,11.26
2023-01-04T11:38:12.488Z,11.26
2023-01-04T11:39:12.535Z,11.23
2023-01-04T11:40:11.848Z,11.20
2023-01-04T11:41:12.056Z,11.19
2023-01-04T11:42:12.306Z,11.19
2023-01-04T11:43:11.469Z,11.16
2023-01-04T11:44:11.737Z,11.12
2023-01-04T11:45:11.940Z,11.08
2023-01-04T11:46:12.338Z,11.05
2023-01-04T11:47:11.383Z,11.02
2023-01-04T11:48:14.878Z,11.02
2023-01-04T11:49:11.881Z,10.95
2023-01-04T11:50:12.852Z,10.93
2023-01-04T11:51:16.974Z,10.93
2023-01-04T11:52:12.550Z,10.93
2023-01-04T11:53:11.843Z,10.88
2023-01-04T11:54:13.014Z,10.87
2023-01-04T11:55:13.259Z,10.90
2023-01-04T11:56:12.565Z,10.91
2023-01-04T11:57:12.715Z,10.90
2023-01-04T11:58:12.959Z,10.88
2023-01-04T11:59:11.299Z,10.90
2023-01-04T12:00:11.832Z,10.91
2023-01-04T12:01:11.766Z,10.90
2023-01-04T12:02:28.600Z,10.91
2023-01-04T12:03:13.123Z,10.93
2023-01-04T12:04:12.415Z,10.91
2023-01-04T12:05:11.715Z,10.93
2023-01-04T12:06:13.266Z,10.95
2023-01-04T12:07:12.120Z,10.95
2023-01-04T12:08:12.380Z,10.95
2023-01-04T12:09:11.696Z,10.95
2023-01-04T12:10:17.157Z,10.94
2023-01-04T12:11:11.126Z,10.99
2023-01-04T12:12:15.894Z,10.98
2023-01-04T12:13:11.631Z,10.99
2023-01-04T12:14:11.830Z,11.01
2023-01-04T12:15:12.016Z,11.01
2023-01-04T12:16:11.334Z,10.95
2023-01-04T12:17:12.492Z,11.02
2023-01-04T12:18:14.080Z,11.03
2023-01-04T12:19:11.916Z,11.05
2023-01-04T12:20:16.520Z,11.06
2023-01-04T12:21:12.462Z,11.08
2023-01-04T12:22:11.747Z,11.11
2023-01-04T12:23:10.922Z,11.12
2023-01-04T12:24:11.370Z,11.16
2023-01-04T12:25:12.318Z,11.17
2023-01-04T12:26:12.559Z,11.20
2023-01-04T12:27:15.150Z,11.23
2023-01-04T12:28:12.017Z,11.21
2023-01-04T12:29:12.213Z,11.21
2023-01-04T12:30:12.513Z,11.24
2023-01-04T12:31:13.961Z,11.23
2023-01-04T12:32:11.909Z,11.27
2023-01-04T12:33:11.171Z,11.28
2023-01-04T12:34:12.412Z,11.28
2023-01-04T12:35:11.651Z,11.28
2023-01-04T12:36:10.846Z,11.31
2023-01-04T12:37:11.092Z,11.35
2023-01-04T12:38:11.305Z,11.36
2023-01-04T12:39:11.540Z,11.41
2023-01-04T12:40:11.685Z,11.39
2023-01-04T12:41:11.256Z,11.39
2023-01-04T12:42:12.169Z,11.38
2023-01-04T12:43:12.488Z,11.41
2023-01-04T12:44:10.650Z,11.38
2023-01-04T12:45:11.862Z,11.38
2023-01-04T12:46:12.145Z,11.39
2023-01-04T12:47:11.449Z,11.41
2023-01-04T12:48:11.630Z,11.41
2023-01-04T12:49:10.856Z,11.42
2023-01-04T12:50:11.074Z,11.41
2023-01-04T12:51:30.073Z,11.41
2023-01-04T12:52:30.658Z,11.41
2023-01-04T12:53:29.446Z,11.42
2023-01-04T12:54:12.147Z,11.38
2023-01-04T12:55:12.269Z,11.36
2023-01-04T12:56:11.562Z,11.30
2023-01-04T12:57:15.962Z,11.24
2023-01-04T12:58:11.937Z,11.20
2023-01-04T12:59:26.820Z,11.16
2023-01-04T13:00:11.431Z,11.16
2023-01-04T13:01:10.877Z,11.13
2023-01-04T13:02:11.958Z,11.16
2023-01-04T13:03:12.474Z,11.17
2023-01-04T13:04:11.403Z,11.17
2023-01-04T13:05:54.036Z,11.17
2023-01-04T13:06:11.901Z,11.24
2023-01-04T13:07:11.150Z,11.23
2023-01-04T13:08:10.321Z,11.23
2023-01-04T13:09:11.682Z,11.21
2023-01-04T13:10:11.788Z,11.23
2023-01-04T13:11:11.023Z,11.20